Time;durP1;ratioP1;P1;durP2;ratioP2;P2;SDS_P1;SDS_P2;PMS_P1;PMS_P2;Temp;Humidity;BMP_temperature;BMP_pressure;BME280_temperature;BME280_humidity;BME280_pressure;Samples;Min_cycle;Max_cycle;Signal;HPM_P1;HPM_P2
2021/12/05 00:24:53;;;;;;;3.28;1.25;;;6.00;52.10;;;;;;5111913;28;34095;-77
2021/12/05 00:27:24;;;;;;;5.55;1.50;;;6.00;52.10;;;;;;5109177;27;34321;-76
2021/12/05 00:30:33;;;;;;;4.30;1.17;;;5.90;52.10;;;;;;5110075;28;34216;-77
2021/12/05 00:32:52;;;;;;;2.72;1.30;;;5.90;52.10;;;;;;5097337;28;34281;-77
2021/12/05 00:35:53;;;;;;;0.82;0.75;;;5.90;52.20;;;;;;5111166;28;34204;-77
2021/12/05 00:38:47;;;;;;;2.95;1.40;;;5.90;52.10;;;;;;5115188;27;34443;-76
2021/12/05 00:41:25;;;;;;;2.40;1.30;;;5.90;52.10;;;;;;5114073;27;34458;-77
2021/12/05 00:46:47;;;;;;;2.42;1.25;;;5.90;52.10;;;;;;5116283;27;34188;-76
2021/12/05 00:49:30;;;;;;;2.67;1.10;;;5.90;52.10;;;;;;5114876;27;34289;-76
2021/12/05 00:55:09;;;;;;;3.55;1.48;;;5.90;52.20;;;;;;5114969;27;34375;-76
2021/12/05 00:57:48;;;;;;;1.77;0.95;;;5.90;52.20;;;;;;5114743;27;34319;-76
2021/12/05 01:06:27;;;;;;;1.80;1.27;;;5.90;52.10;;;;;;5130573;27;34237;-76
2021/12/05 01:08:45;;;;;;;2.38;1.40;;;5.90;52.20;;;;;;5114922;27;34231;-76
2021/12/05 01:11:34;;;;;;;1.45;1.20;;;5.80;51.60;;;;;;5096076;27;34556;-77
2021/12/05 01:16:45;;;;;;;2.85;1.50;;;5.90;52.00;;;;;;5129051;27;34154;-77
2021/12/05 01:19:14;;;;;;;1.25;0.98;;;5.80;51.90;;;;;;5112897;27;34381;-76
2021/12/05 01:21:41;;;;;;;1.70;1.27;;;5.80;52.10;;;;;;5078173;27;34300;-77
2021/12/05 01:24:20;;;;;;;3.70;1.30;;;5.80;52.20;;;;;;5112537;27;36004;-76
2021/12/05 01:26:56;;;;;;;4.07;1.27;;;5.80;52.00;;;;;;5112312;27;34491;-76
2021/12/05 01:51:43;;;;;;;1.23;0.82;;;5.70;52.00;;;;;;5128884;27;34406;-76
2021/12/05 01:54:15;;;;;;;1.77;1.35;;;5.70;52.10;;;;;;5114733;27;34190;-77
2021/12/05 01:56:58;;;;;;;2.78;1.48;;;5.70;51.90;;;;;;5113894;27;34324;-77
2021/12/05 01:59:29;;;;;;;1.75;1.25;;;5.70;51.90;;;;;;5113025;27;34079;-77
2021/12/05 02:02:31;;;;;;;1.67;1.30;;;5.70;52.10;;;;;;5108827;27;34420;-76
2021/12/05 02:15:56;;;;;;;4.28;1.38;;;5.70;51.90;;;;;;5129991;27;34446;-76
2021/12/05 02:40:23;;;;;;;1.42;1.20;;;5.60;51.60;;;;;;5127595;27;34517;-76
2021/12/05 02:42:53;;;;;;;4.43;1.50;;;5.70;51.70;;;;;;5112181;27;34193;-76
2021/12/05 02:45:19;;;;;;;2.60;1.27;;;5.70;51.70;;;;;;5129168;27;34225;-76
2021/12/05 02:47:50;;;;;;;2.65;1.10;;;5.60;51.50;;;;;;5110847;27;34318;-76
2021/12/05 02:50:18;;;;;;;1.75;1.13;;;5.60;51.50;;;;;;5109758;27;35754;-76
2021/12/05 02:52:45;;;;;;;3.17;1.30;;;5.60;51.40;;;;;;5108544;27;34349;-76
2021/12/05 02:55:22;;;;;;;1.90;1.40;;;5.60;51.60;;;;;;5125541;27;34414;-76
2021/12/05 02:57:52;;;;;;;3.78;1.20;;;5.50;51.60;;;;;;5092552;27;33823;-76
2021/12/05 03:00:36;;;;;;;2.80;1.23;;;5.60;51.60;;;;;;5108303;27;36356;-76
2021/12/05 03:03:03;;;;;;;1.45;1.08;;;5.60;51.70;;;;;;5092893;27;34388;-76
2021/12/05 03:05:30;;;;;;;2.40;1.45;;;5.60;51.60;;;;;;5109659;27;34237;-76
2021/12/05 03:08:00;;;;;;;1.42;1.30;;;5.60;51.80;;;;;;5091024;27;34155;-76
2021/12/05 03:10:28;;;;;;;3.33;1.55;;;5.60;52.50;;;;;;5126185;27;34473;-76
2021/12/05 03:12:54;;;;;;;1.83;1.45;;;5.60;52.10;;;;;;5091763;27;34328;-76
2021/12/05 03:15:21;;;;;;;1.63;1.13;;;5.60;51.70;;;;;;5110031;27;34302;-76
2021/12/05 03:17:47;;;;;;;5.22;1.20;;;5.60;51.70;;;;;;5112838;27;34147;-76
2021/12/05 03:20:15;;;;;;;3.08;1.27;;;5.60;51.70;;;;;;5111028;27;35578;-76
2021/12/05 03:22:41;;;;;;;1.48;1.10;;;5.60;51.70;;;;;;5111791;27;34344;-76
2021/12/05 03:25:09;;;;;;;3.35;1.25;;;5.60;51.80;;;;;;5113976;27;34218;-76
2021/12/05 03:27:35;;;;;;;1.15;1.00;;;5.60;51.60;;;;;;5112232;27;34195;-76
2021/12/05 03:30:03;;;;;;;1.50;1.10;;;5.60;51.60;;;;;;5111860;27;35885;-76
2021/12/05 03:32:29;;;;;;;2.47;1.35;;;5.60;51.70;;;;;;5113141;27;34195;-76
2021/12/05 03:34:55;;;;;;;4.43;1.52;;;5.60;51.70;;;;;;5096858;27;34130;-76
2021/12/05 03:37:21;;;;;;;3.20;1.42;;;5.60;51.60;;;;;;5132596;27;34097;-76
2021/12/05 03:39:48;;;;;;;2.90;1.27;;;5.60;51.70;;;;;;5109795;28;35680;-76
2021/12/05 03:42:14;;;;;;;3.33;1.52;;;5.70;51.90;;;;;;5089904;28;34238;-76
2021/12/05 03:44:40;;;;;;;2.13;1.10;;;5.60;51.60;;;;;;5108747;28;34386;-76
2021/12/05 03:47:08;;;;;;;2.63;1.50;;;5.70;51.60;;;;;;5110020;27;34068;-76
2021/12/05 03:49:35;;;;;;;2.45;1.30;;;5.70;51.70;;;;;;5108061;28;35648;-76
2021/12/05 03:52:08;;;;;;;4.07;1.20;;;5.70;51.80;;;;;;5108424;28;34404;-76
2021/12/05 03:54:34;;;;;;;2.85;1.30;;;5.70;51.50;;;;;;5092558;28;34192;-76
2021/12/05 03:57:02;;;;;;;2.25;1.40;;;5.70;51.80;;;;;;5109176;27;34400;-76
2021/12/05 03:59:29;;;;;;;2.28;1.30;;;5.60;51.70;;;;;;5090704;28;35870;-76
2021/12/05 04:01:56;;;;;;;3.63;1.55;;;5.70;51.80;;;;;;5108039;28;34309;-76
2021/12/05 04:04:23;;;;;;;3.00;1.33;;;5.70;51.80;;;;;;5092275;28;34115;-76
2021/12/05 04:06:49;;;;;;;1.02;0.98;;;5.70;51.90;;;;;;5107530;28;34458;-76
2021/12/05 04:09:17;;;;;;;1.45;1.10;;;5.60;51.70;;;;;;5107771;28;35757;-76
2021/12/05 04:11:56;;;;;;;1.50;1.20;;;5.60;51.90;;;;;;5089105;28;33802;-76
2021/12/05 04:14:24;;;;;;;1.83;1.00;;;5.60;52.00;;;;;;5091694;28;34394;-76
2021/12/05 04:16:53;;;;;;;2.92;1.30;;;5.60;52.10;;;;;;5090457;28;34476;-76
2021/12/05 04:19:19;;;;;;;3.70;1.40;;;5.60;52.10;;;;;;5090439;28;35708;-76
2021/12/05 04:21:45;;;;;;;2.20;0.93;;;5.60;52.00;;;;;;5106756;28;34592;-76
2021/12/05 04:24:13;;;;;;;1.45;1.10;;;5.60;51.90;;;;;;5090346;28;34079;-76
2021/12/05 04:26:41;;;;;;;2.65;1.00;;;5.50;52.00;;;;;;5106232;27;34432;-76
2021/12/05 04:29:08;;;;;;;4.03;1.40;;;5.60;52.10;;;;;;5090865;28;35901;-76
2021/12/05 04:31:36;;;;;;;1.05;0.95;;;5.60;52.00;;;;;;5106557;28;34213;-76
2021/12/05 04:34:03;;;;;;;3.15;1.30;;;5.60;52.00;;;;;;5106238;28;34320;-76
2021/12/05 04:36:29;;;;;;;1.92;1.17;;;5.50;52.00;;;;;;5089641;28;34150;-76
2021/12/05 04:38:56;;;;;;;6.28;1.38;;;5.50;52.10;;;;;;5107905;27;36441;-76
2021/12/05 04:41:23;;;;;;;2.92;1.13;;;5.60;52.10;;;;;;5109037;27;34154;-76
2021/12/05 04:43:51;;;;;;;2.10;1.33;;;5.60;52.10;;;;;;5110964;27;34419;-76
2021/12/05 04:46:21;;;;;;;1.33;1.17;;;5.60;52.00;;;;;;5127766;27;34075;-76
2021/12/05 04:48:50;;;;;;;2.45;1.25;;;5.50;52.00;;;;;;5110006;27;34217;-76
2021/12/05 04:51:19;;;;;;;1.77;1.20;;;5.60;52.10;;;;;;5127438;27;34045;-76
2021/12/05 04:53:45;;;;;;;1.08;0.98;;;5.60;52.00;;;;;;5075065;27;34307;-76
2021/12/05 04:56:11;;;;;;;4.13;1.48;;;5.50;52.00;;;;;;5107951;27;34191;-76
2021/12/05 04:58:37;;;;;;;2.72;1.10;;;5.50;52.00;;;;;;5109003;27;35542;-76
2021/12/05 05:01:05;;;;;;;1.33;1.08;;;5.50;52.00;;;;;;5093243;27;34274;-76
2021/12/05 05:03:33;;;;;;;1.38;0.95;;;5.50;52.10;;;;;;5108576;27;34389;-76
2021/12/05 05:06:06;;;;;;;1.58;1.00;;;5.50;52.00;;;;;;5127669;27;34253;-76
2021/12/05 05:08:33;;;;;;;1.95;1.10;;;5.50;52.10;;;;;;5077247;27;35963;-76
2021/12/05 05:11:02;;;;;;;3.03;1.10;;;5.50;52.70;;;;;;5128476;27;34181;-76
2021/12/05 05:13:30;;;;;;;1.55;1.20;;;5.50;52.00;;;;;;5126335;27;34380;-76
2021/12/05 05:15:57;;;;;;;3.42;1.10;;;5.50;52.00;;;;;;5108378;27;34168;-76
2021/12/05 05:18:26;;;;;;;1.75;1.08;;;5.50;52.00;;;;;;5108060;27;34335;-76
2021/12/05 05:23:46;;;;;;;2.25;1.00;;;5.40;51.90;;;;;;5128988;27;34102;-76
2021/12/05 05:26:45;;;;;;;1.20;1.10;;;5.50;51.90;;;;;;5093919;27;34518;-76
2021/12/05 05:29:23;;;;;;;6.03;1.02;;;5.40;51.70;;;;;;5110890;27;34339;-76
2021/12/05 05:40:07;;;;;;;1.33;1.05;;;5.50;51.80;;;;;;5106448;28;34266;-76
2021/12/05 05:43:08;;;;;;;4.13;1.05;;;5.50;51.90;;;;;;5088391;28;34335;-76
2021/12/05 05:50:48;;;;;;;2.20;1.13;;;5.50;51.90;;;;;;5078117;28;34457;-76
2021/12/05 05:53:14;;;;;;;1.77;0.77;;;5.50;51.90;;;;;;5072233;28;34211;-76
2021/12/05 05:55:40;;;;;;;2.85;1.20;;;5.50;51.90;;;;;;5073168;28;34127;-76
2021/12/05 05:58:12;;;;;;;4.07;1.02;;;5.50;51.80;;;;;;5073371;28;34447;-76
2021/12/05 06:00:52;;;;;;;2.10;0.95;;;5.50;51.80;;;;;;5073902;28;35465;-76
2021/12/05 06:03:21;;;;;;;3.88;1.20;;;5.50;51.70;;;;;;5073779;28;34066;-76
2021/12/05 06:05:50;;;;;;;1.27;0.88;;;5.50;51.80;;;;;;5090234;28;34196;-76
2021/12/05 06:08:18;;;;;;;1.23;0.90;;;5.50;51.80;;;;;;5089279;28;34108;-76
2021/12/05 06:10:45;;;;;;;0.85;0.85;;;5.50;51.90;;;;;;5088360;28;35677;-76
2021/12/05 06:13:11;;;;;;;2.30;0.73;;;5.50;51.80;;;;;;5106905;28;34134;-76
2021/12/05 06:15:37;;;;;;;1.80;1.00;;;5.50;51.90;;;;;;5053092;28;34282;-76
2021/12/05 06:18:03;;;;;;;0.95;0.90;;;5.50;51.80;;;;;;5089249;28;34236;-76
2021/12/05 06:20:31;;;;;;;1.92;0.90;;;5.50;51.80;;;;;;5071235;28;35638;-76
2021/12/05 06:22:57;;;;;;;3.88;1.05;;;5.40;51.90;;;;;;5087303;28;34206;-76
2021/12/05 06:25:26;;;;;;;1.08;0.98;;;5.50;52.00;;;;;;5070773;28;34305;-76
2021/12/05 06:27:56;;;;;;;1.50;1.00;;;5.40;51.90;;;;;;5071315;28;34308;-76
2021/12/05 06:41:33;;;;;;;1.13;0.93;;;5.40;51.70;;;;;;5112593;27;34279;-76
2021/12/05 06:46:41;;;;;;;1.25;0.90;;;5.40;51.80;;;;;;5129482;27;34096;-76
2021/12/05 06:49:07;;;;;;;2.75;0.70;;;5.40;51.50;;;;;;5094367;27;34080;-76
2021/12/05 06:51:33;;;;;;;1.67;0.75;;;5.50;51.50;;;;;;5094170;27;35658;-76
2021/12/05 06:53:59;;;;;;;0.95;0.80;;;5.50;51.70;;;;;;5129615;27;34334;-75
2021/12/05 06:56:26;;;;;;;1.98;0.70;;;5.40;51.60;;;;;;5097663;27;34386;-76
2021/12/05 06:58:53;;;;;;;2.13;1.02;;;5.40;51.60;;;;;;5112668;27;34285;-76
2021/12/05 07:01:19;;;;;;;1.70;1.10;;;5.30;51.40;;;;;;5131870;27;34981;-76
2021/12/05 07:03:46;;;;;;;0.80;0.63;;;5.30;51.80;;;;;;5111820;27;34446;-76
2021/12/05 07:06:22;;;;;;;3.47;0.80;;;5.30;51.60;;;;;;5111794;27;34079;-76
2021/12/05 07:08:48;;;;;;;2.25;1.15;;;5.30;51.70;;;;;;5131422;27;34258;-76
2021/12/05 07:11:22;;;;;;;0.80;0.77;;;5.30;51.80;;;;;;5113455;27;35633;-76
2021/12/05 07:21:57;;;;;;;1.42;1.08;;;5.40;51.60;;;;;;5116846;27;34330;-76
2021/12/05 07:40:19;;;;;;;1.23;0.98;;;5.40;51.60;;;;;;5129841;27;34295;-76
2021/12/05 07:40:42;;;;;;;2.30;1.20;;;5.40;51.70;;;;;;5100546;27;34131;-76
2021/12/05 07:43:11;;;;;;;1.08;1.00;;;5.40;51.70;;;;;;5095759;27;35988;-76
2021/12/05 07:45:45;;;;;;;1.73;1.00;;;5.30;51.80;;;;;;5128533;27;34329;-76
2021/12/05 07:48:21;;;;;;;1.85;1.02;;;5.30;51.80;;;;;;5097570;27;34128;-76
2021/12/05 07:51:02;;;;;;;3.78;0.88;;;5.40;51.80;;;;;;5096146;27;34579;-77
2021/12/05 07:53:35;;;;;;;3.38;1.00;;;5.40;51.70;;;;;;5111473;27;36052;-76
2021/12/05 07:56:11;;;;;;;1.25;0.90;;;5.30;51.90;;;;;;5128578;27;34241;-76
2021/12/05 07:59:05;;;;;;;1.40;0.95;;;5.30;51.80;;;;;;5110227;27;34323;-76
2021/12/05 08:15:09;;;;;;;3.28;1.10;;;5.30;52.10;;;;;;5113336;27;34814;-76
2021/12/05 08:17:35;;;;;;;1.08;0.90;;;5.30;52.10;;;;;;5111121;27;34454;-76
2021/12/05 08:20:03;;;;;;;2.63;0.80;;;5.30;52.10;;;;;;5129275;27;34140;-76
2021/12/05 08:22:29;;;;;;;1.02;0.85;;;5.30;52.10;;;;;;5112479;27;34056;-76
2021/12/05 08:25:00;;;;;;;1.00;0.70;;;5.30;52.10;;;;;;5110236;27;35772;-76
2021/12/05 08:27:26;;;;;;;5.13;1.00;;;5.30;52.20;;;;;;5095433;27;34384;-76
2021/12/05 08:29:56;;;;;;;0.80;0.80;;;5.30;52.10;;;;;;5093140;27;34257;-76
2021/12/05 08:32:32;;;;;;;3.75;1.00;;;5.30;52.10;;;;;;5094648;27;34334;-76
2021/12/05 08:35:10;;;;;;;4.57;1.17;;;5.30;52.10;;;;;;5111490;27;36632;-76
2021/12/05 09:21:19;;;;;;;3.88;1.10;;;5.50;52.00;;;;;;5124950;27;34185;-76
2021/12/05 09:26:44;;;;;;;2.92;0.73;;;5.60;52.20;;;;;;5126931;27;34192;-77
2021/12/05 09:29:22;;;;;;;2.13;1.10;;;5.70;51.70;;;;;;5110104;27;34923;-76
2021/12/05 10:01:58;;;;;;;3.22;1.27;;;6.40;50.80;;;;;;5109992;27;34650;-76
2021/12/05 10:07:04;;;;;;;1.92;1.45;;;6.50;50.60;;;;;;5110096;27;34338;-76
2021/12/05 10:15:41;;;;;;;1.40;1.08;;;6.70;50.20;;;;;;5125583;27;34145;-76
2021/12/05 10:18:50;;;;;;;1.42;1.15;;;6.80;49.90;;;;;;5098299;27;33780;-76
2021/12/05 10:35:46;;;;;;;2.00;0.90;;;7.50;49.30;;;;;;5105186;28;34196;-75
2021/12/05 10:38:14;;;;;;;0.80;0.80;;;7.40;48.10;;;;;;5090449;28;34320;-75
2021/12/05 10:40:47;;;;;;;3.78;1.10;;;7.30;48.10;;;;;;5086320;28;34338;-76
2021/12/05 10:43:17;;;;;;;2.88;1.00;;;7.10;49.30;;;;;;5086093;28;34546;-76
2021/12/05 10:45:57;;;;;;;1.38;0.95;;;7.00;49.30;;;;;;5085695;28;35608;-76
2021/12/05 10:48:29;;;;;;;2.28;0.60;;;6.90;49.20;;;;;;5086831;28;34582;-76
2021/12/05 10:51:04;;;;;;;1.30;0.80;;;6.80;49.50;;;;;;5085785;28;34138;-76
2021/12/05 10:53:53;;;;;;;2.42;0.95;;;6.80;49.70;;;;;;5089529;27;34261;-76
2021/12/05 10:56:30;;;;;;;1.13;0.77;;;6.80;49.90;;;;;;5093965;27;36629;-76
2021/12/05 10:59:17;;;;;;;1.48;1.00;;;6.90;49.80;;;;;;5107616;27;34088;-76
2021/12/05 11:01:49;;;;;;;1.35;0.90;;;7.00;48.50;;;;;;5124238;27;34173;-76
2021/12/05 11:04:23;;;;;;;1.27;0.93;;;7.00;49.40;;;;;;5107744;27;34697;-76
2021/12/05 11:06:59;;;;;;;1.95;0.85;;;7.00;49.30;;;;;;5106642;27;36478;-77
2021/12/05 11:09:36;;;;;;;1.10;0.88;;;6.90;47.70;;;;;;5073896;27;34167;-76
2021/12/05 11:12:10;;;;;;;1.25;0.60;;;7.00;49.40;;;;;;5089732;27;34155;-76
2021/12/05 11:14:40;;;;;;;2.45;1.08;;;7.00;49.70;;;;;;5107200;27;34316;-76
2021/12/05 11:17:10;;;;;;;1.55;0.90;;;7.10;50.10;;;;;;5089381;27;36815;-76
2021/12/05 11:19:43;;;;;;;1.55;0.80;;;7.00;50.30;;;;;;5105973;27;34260;-76
2021/12/05 11:22:19;;;;;;;0.95;0.70;;;7.10;49.90;;;;;;5105665;27;34136;-76
2021/12/05 11:24:50;;;;;;;0.95;0.82;;;7.00;50.40;;;;;;5124657;27;34188;-76
2021/12/05 11:27:22;;;;;;;1.98;0.70;;;7.00;49.80;;;;;;5123815;27;34260;-76
2021/12/05 11:29:59;;;;;;;3.38;0.88;;;6.90;49.80;;;;;;5106772;27;34342;-76
2021/12/05 11:32:36;;;;;;;1.42;1.02;;;6.90;50.10;;;;;;5105341;27;34177;-76
2021/12/05 11:35:21;;;;;;;1.60;1.00;;;6.90;50.30;;;;;;5105570;27;34247;-76
2021/12/05 11:37:54;;;;;;;1.15;1.02;;;6.90;50.10;;;;;;5124492;27;34199;-76
2021/12/05 11:40:22;;;;;;;1.55;0.98;;;6.90;50.70;;;;;;5127109;27;34125;-76
2021/12/05 11:43:02;;;;;;;1.13;0.95;;;6.90;50.50;;;;;;5091034;27;34258;-76
2021/12/05 11:45:30;;;;;;;3.00;1.30;;;6.90;50.40;;;;;;5108728;27;34177;-76
2021/12/05 11:47:57;;;;;;;2.05;1.10;;;6.80;50.60;;;;;;5075609;27;36087;-76
2021/12/05 11:50:37;;;;;;;1.58;1.00;;;6.80;50.60;;;;;;5109678;27;34283;-76
2021/12/05 11:53:04;;;;;;;1.17;0.90;;;6.80;50.70;;;;;;5092851;27;34271;-76
2021/12/05 11:58:18;;;;;;;1.52;0.88;;;6.70;50.80;;;;;;5128665;27;34603;-76
2021/12/05 12:00:45;;;;;;;1.88;1.13;;;6.70;51.00;;;;;;5112608;27;34512;-76
2021/12/05 12:03:11;;;;;;;1.33;1.13;;;6.70;51.30;;;;;;5110128;27;34591;-76
2021/12/05 12:05:37;;;;;;;1.90;1.15;;;6.70;51.30;;;;;;5110152;27;34103;-76
2021/12/05 12:08:09;;;;;;;2.15;1.00;;;6.70;52.10;;;;;;5128619;27;34164;-76
2021/12/05 12:10:45;;;;;;;1.98;1.17;;;6.70;51.30;;;;;;5079171;27;33740;-76
2021/12/05 12:13:18;;;;;;;2.88;1.00;;;6.70;51.30;;;;;;5079143;27;34201;-76
2021/12/05 12:15:45;;;;;;;1.15;1.05;;;6.70;51.40;;;;;;5095580;27;34364;-76
2021/12/05 12:18:22;;;;;;;1.83;1.15;;;6.80;51.50;;;;;;5076158;27;36382;-76
2021/12/05 12:20:48;;;;;;;0.80;0.77;;;6.70;51.40;;;;;;5109100;27;34165;-76
2021/12/05 12:23:17;;;;;;;1.52;1.02;;;6.70;51.70;;;;;;5108782;27;34087;-76
2021/12/05 12:25:50;;;;;;;2.15;0.95;;;6.70;51.70;;;;;;5075932;27;34436;-76
2021/12/05 12:28:17;;;;;;;1.02;0.90;;;6.70;51.60;;;;;;5092962;27;35502;-76
2021/12/05 12:30:51;;;;;;;0.77;0.70;;;6.70;51.60;;;;;;5109097;27;34256;-76
2021/12/05 12:33:26;;;;;;;1.58;0.73;;;6.70;51.50;;;;;;5108922;27;34369;-76
2021/12/05 12:35:52;;;;;;;2.78;1.05;;;6.70;51.60;;;;;;5126897;27;34200;-76
2021/12/05 12:38:23;;;;;;;1.92;0.85;;;6.70;51.70;;;;;;5109625;27;36132;-76
2021/12/05 12:40:54;;;;;;;1.25;1.00;;;6.80;51.70;;;;;;5130872;27;34318;-76
2021/12/05 12:43:41;;;;;;;3.10;1.20;;;6.70;51.60;;;;;;5095598;27;34158;-76
2021/12/05 12:46:26;;;;;;;1.00;0.90;;;6.80;51.70;;;;;;5110608;27;34277;-76
2021/12/05 12:49:18;;;;;;;3.25;1.30;;;6.80;51.60;;;;;;5111089;27;34386;-76
2021/12/05 12:51:50;;;;;;;1.20;0.70;;;6.80;51.60;;;;;;5089558;27;34360;-76
2021/12/05 12:54:24;;;;;;;1.30;1.20;;;6.80;51.50;;;;;;5091329;28;34164;-76
2021/12/05 12:57:11;;;;;;;1.52;1.00;;;6.80;51.70;;;;;;5109880;28;34118;-76
2021/12/05 12:59:45;;;;;;;1.52;0.75;;;6.90;52.40;;;;;;5089267;28;36108;-76
2021/12/05 13:02:35;;;;;;;0.95;0.75;;;6.90;52.10;;;;;;5087327;28;34162;-76
2021/12/05 13:10:39;;;;;;;1.38;0.70;;;6.70;52.00;;;;;;5104657;28;34181;-76
2021/12/05 13:13:16;;;;;;;1.88;0.93;;;6.60;51.80;;;;;;5086453;28;34173;-75
2021/12/05 13:15:52;;;;;;;3.13;1.00;;;6.50;51.90;;;;;;5103619;27;34290;-76
2021/12/05 13:18:25;;;;;;;1.48;0.93;;;6.60;52.30;;;;;;5104333;28;34162;-76
2021/12/05 13:20:58;;;;;;;4.10;0.98;;;6.50;52.40;;;;;;5087242;28;36016;-76
2021/12/05 13:23:45;;;;;;;1.10;0.80;;;6.60;52.60;;;;;;5070437;28;34579;-76
2021/12/05 13:26:36;;;;;;;1.23;0.70;;;6.60;52.30;;;;;;5071139;28;34526;-76
2021/12/05 13:29:20;;;;;;;2.88;0.85;;;6.60;52.60;;;;;;5104681;27;34307;-76
2021/12/05 13:32:16;;;;;;;0.90;0.90;;;6.70;52.70;;;;;;5104514;28;35082;-76
2021/12/05 13:34:46;;;;;;;1.65;0.90;;;6.70;52.70;;;;;;5104394;28;34341;-76
2021/12/05 13:37:27;;;;;;;1.20;0.95;;;6.80;52.20;;;;;;5086927;28;34513;-76
2021/12/05 13:40:11;;;;;;;2.65;0.98;;;6.80;52.20;;;;;;5082330;28;34301;-76
2021/12/05 13:42:50;;;;;;;1.60;0.80;;;6.80;52.20;;;;;;5067154;28;36651;-76
2021/12/05 13:45:21;;;;;;;5.60;1.23;;;6.80;52.20;;;;;;5036346;28;34455;-76
2021/12/05 13:48:10;;;;;;;1.42;0.90;;;6.80;52.30;;;;;;5084698;28;34301;-76
2021/12/05 13:50:44;;;;;;;1.15;1.00;;;6.90;52.00;;;;;;5052531;28;34488;-77
2021/12/05 13:53:19;;;;;;;1.15;0.80;;;6.80;52.00;;;;;;5084523;28;34305;-76
2021/12/05 13:56:02;;;;;;;2.15;0.70;;;6.70;51.90;;;;;;5082696;28;34408;-76
2021/12/05 13:58:45;;;;;;;0.93;0.70;;;6.70;52.10;;;;;;5082462;28;34222;-76
2021/12/05 14:01:30;;;;;;;0.70;0.65;;;6.60;52.10;;;;;;5065768;28;34345;-76
2021/12/05 14:04:04;;;;;;;2.53;1.00;;;6.60;52.20;;;;;;5067236;28;35788;-77
2021/12/05 14:06:53;;;;;;;0.90;0.70;;;6.50;52.30;;;;;;5066544;28;34264;-76
2021/12/05 14:09:30;;;;;;;0.98;0.52;;;6.50;52.40;;;;;;5050143;28;34278;-77
2021/12/05 14:12:04;;;;;;;1.27;0.70;;;6.40;52.50;;;;;;5084618;28;34397;-76
2021/12/05 14:14:37;;;;;;;1.05;0.80;;;6.40;52.50;;;;;;5046018;28;35702;-76
2021/12/05 14:17:06;;;;;;;1.35;0.90;;;6.40;52.40;;;;;;5080111;28;34321;-76
2021/12/05 14:19:35;;;;;;;1.50;1.10;;;6.30;52.70;;;;;;5066292;28;34328;-76
2021/12/05 14:22:04;;;;;;;0.80;0.80;;;6.30;52.50;;;;;;5049305;28;34220;-77
2021/12/05 14:24:34;;;;;;;1.20;1.02;;;6.30;52.80;;;;;;5061485;28;35541;-76
2021/12/05 14:27:04;;;;;;;0.95;0.73;;;6.30;52.60;;;;;;5080704;28;34370;-76
2021/12/05 14:29:33;;;;;;;1.40;1.00;;;6.20;52.50;;;;;;5050111;28;34575;-76
2021/12/05 14:32:06;;;;;;;0.70;0.70;;;6.20;52.60;;;;;;5048300;28;34155;-76
2021/12/05 14:34:32;;;;;;;1.42;0.77;;;6.20;52.60;;;;;;5065592;28;35849;-76
2021/12/05 14:37:03;;;;;;;2.63;1.10;;;6.20;52.40;;;;;;5049368;28;34203;-76
2021/12/05 14:39:32;;;;;;;1.88;1.38;;;6.10;52.50;;;;;;5048791;28;34425;-76
2021/12/05 14:42:03;;;;;;;1.95;1.50;;;6.10;52.60;;;;;;5102019;28;34196;-77
2021/12/05 14:44:34;;;;;;;3.00;1.77;;;6.10;52.40;;;;;;5085043;28;36512;-76
2021/12/05 14:47:05;;;;;;;3.92;1.80;;;6.10;52.60;;;;;;5085321;28;34178;-76
2021/12/05 14:49:36;;;;;;;3.60;1.65;;;6.10;52.60;;;;;;5103846;28;34369;-77
2021/12/05 14:52:05;;;;;;;2.15;1.50;;;6.00;52.50;;;;;;5069793;28;34352;-77
2021/12/05 14:54:36;;;;;;;1.27;1.13;;;6.00;52.50;;;;;;5087344;28;36665;-76
2021/12/05 14:57:08;;;;;;;1.85;1.30;;;6.00;52.50;;;;;;5103516;27;34267;-77
2021/12/05 14:59:34;;;;;;;1.80;1.20;;;6.00;52.60;;;;;;5069715;28;34322;-77
2021/12/05 15:02:00;;;;;;;1.27;1.15;;;6.00;52.70;;;;;;5103021;28;34333;-76
2021/12/05 15:04:31;;;;;;;1.45;0.80;;;6.00;52.70;;;;;;5103916;28;34418;-77
2021/12/05 15:06:58;;;;;;;1.40;1.30;;;6.00;52.70;;;;;;5086684;28;34104;-77
2021/12/05 15:09:29;;;;;;;1.33;0.93;;;6.00;52.80;;;;;;5103454;27;34274;-77
2021/12/05 15:12:00;;;;;;;0.80;0.80;;;6.00;52.90;;;;;;5072395;28;34131;-77
2021/12/05 15:14:27;;;;;;;1.25;0.90;;;6.00;52.90;;;;;;5089860;28;35739;-77
2021/12/05 15:16:59;;;;;;;0.70;0.70;;;5.90;52.90;;;;;;5106665;28;34130;-77
2021/12/05 15:19:25;;;;;;;0.65;0.65;;;5.90;52.80;;;;;;5089509;28;34090;-76
2021/12/05 15:21:51;;;;;;;3.90;0.60;;;5.90;52.90;;;;;;5105782;28;34336;-77
2021/12/05 15:24:20;;;;;;;0.50;0.50;;;5.80;52.90;;;;;;5105545;28;36578;-77
2021/12/05 15:26:46;;;;;;;1.08;0.60;;;5.90;53.00;;;;;;5089075;28;34351;-77
2021/12/05 15:29:13;;;;;;;0.55;0.55;;;5.90;53.10;;;;;;5105694;28;34277;-76
2021/12/05 15:31:41;;;;;;;3.42;1.00;;;5.80;53.10;;;;;;5106417;28;34398;-76
2021/12/05 15:34:24;;;;;;;0.73;0.73;;;5.80;53.00;;;;;;5104474;28;35628;-76
2021/12/05 15:36:51;;;;;;;1.35;0.90;;;5.80;52.90;;;;;;5088354;28;34150;-76
2021/12/05 15:39:23;;;;;;;1.50;0.50;;;5.80;52.80;;;;;;5084397;28;34289;-77
2021/12/05 15:41:52;;;;;;;0.60;0.60;;;5.80;52.80;;;;;;5084826;28;34420;-77
2021/12/05 15:44:32;;;;;;;0.90;0.82;;;5.70;52.80;;;;;;5084054;28;35563;-77
2021/12/05 15:47:03;;;;;;;0.68;0.68;;;5.70;53.00;;;;;;5084023;28;34194;-77
2021/12/05 15:49:53;;;;;;;1.73;0.90;;;5.70;53.10;;;;;;5084914;28;34145;-77
2021/12/05 15:52:24;;;;;;;0.88;0.52;;;5.70;53.40;;;;;;5071807;28;34546;-76
2021/12/05 15:54:51;;;;;;;1.02;0.90;;;5.60;53.10;;;;;;5067880;28;35982;-76
2021/12/05 15:57:27;;;;;;;0.80;0.80;;;5.60;53.30;;;;;;5085417;28;34262;-77
2021/12/05 15:59:54;;;;;;;0.80;0.70;;;5.70;53.40;;;;;;5052420;28;34254;-77
2021/12/05 16:02:21;;;;;;;1.00;0.90;;;5.70;53.50;;;;;;5067988;28;34198;-77
2021/12/05 16:04:48;;;;;;;1.05;0.82;;;5.70;53.40;;;;;;5067986;28;34327;-77
2021/12/05 16:07:17;;;;;;;1.75;0.93;;;5.70;53.30;;;;;;5067289;28;34240;-77
2021/12/05 16:09:44;;;;;;;1.20;1.00;;;5.60;53.20;;;;;;5085836;28;34319;-77
2021/12/05 16:12:16;;;;;;;2.42;1.08;;;5.70;53.40;;;;;;5086249;28;34483;-77
2021/12/05 16:14:46;;;;;;;2.03;1.30;;;5.70;53.50;;;;;;5083670;28;35542;-77
2021/12/05 16:17:24;;;;;;;1.27;1.17;;;5.70;53.40;;;;;;5083663;28;34359;-77
2021/12/05 16:20:16;;;;;;;3.03;1.45;;;5.70;53.40;;;;;;5085998;28;34311;-77
2021/12/05 16:23:02;;;;;;;0.98;0.95;;;5.70;53.50;;;;;;5054143;28;34296;-77
2021/12/05 16:25:30;;;;;;;1.92;1.50;;;5.70;53.50;;;;;;5085090;28;34165;-76
2021/12/05 16:28:01;;;;;;;3.22;1.48;;;5.60;53.40;;;;;;5084326;28;34197;-77
2021/12/05 16:30:32;;;;;;;3.00;1.95;;;5.60;53.40;;;;;;5084656;28;34275;-77
2021/12/05 16:33:00;;;;;;;3.25;2.00;;;5.60;53.40;;;;;;5050765;28;34354;-77
2021/12/05 16:35:33;;;;;;;4.53;1.88;;;5.60;53.40;;;;;;5068223;28;35307;-77
2021/12/05 16:38:01;;;;;;;3.17;2.03;;;5.60;53.40;;;;;;5051325;28;34174;-77
2021/12/05 16:40:50;;;;;;;4.18;2.10;;;5.60;53.50;;;;;;5067550;28;34195;-77
2021/12/05 16:43:17;;;;;;;1.38;1.27;;;5.60;53.50;;;;;;5053499;28;34461;-77
2021/12/05 16:45:43;;;;;;;2.10;1.30;;;5.60;53.60;;;;;;5067302;28;35696;-77
2021/12/05 16:48:15;;;;;;;2.28;1.50;;;5.60;53.50;;;;;;5067123;28;34526;-77
2021/12/05 16:50:41;;;;;;;2.33;1.20;;;5.60;53.50;;;;;;5067880;28;34226;-77
2021/12/05 16:53:07;;;;;;;1.75;1.20;;;5.60;53.60;;;;;;5067608;28;34413;-77
2021/12/05 16:55:34;;;;;;;1.00;1.00;;;5.60;53.50;;;;;;5084335;28;35609;-77
2021/12/05 16:58:10;;;;;;;3.60;1.10;;;5.50;53.60;;;;;;5067270;28;34101;-77
2021/12/05 17:00:39;;;;;;;2.72;1.92;;;5.60;53.60;;;;;;5068995;28;34466;-77
2021/12/05 17:03:08;;;;;;;1.13;1.10;;;5.60;53.50;;;;;;5050842;28;34580;-77
2021/12/05 17:05:42;;;;;;;1.20;1.05;;;5.60;53.60;;;;;;5084696;28;35055;-76
2021/12/05 17:08:14;;;;;;;0.80;0.80;;;5.60;53.60;;;;;;5066727;28;34525;-77
2021/12/05 17:10:59;;;;;;;1.73;1.60;;;5.60;53.60;;;;;;5068116;28;34261;-77
2021/12/05 17:13:40;;;;;;;2.20;1.70;;;5.60;53.70;;;;;;5085426;28;34185;-77
2021/12/05 17:16:09;;;;;;;1.73;1.63;;;5.60;53.70;;;;;;5051461;28;35802;-77
2021/12/05 17:18:41;;;;;;;2.00;1.70;;;5.60;53.70;;;;;;5051148;28;34417;-77
2021/12/05 17:21:25;;;;;;;2.33;1.90;;;5.60;53.60;;;;;;5051408;28;34304;-77
2021/12/05 17:23:55;;;;;;;1.45;1.20;;;5.60;53.80;;;;;;5067858;28;34180;-77
2021/12/05 17:26:27;;;;;;;1.50;1.40;;;5.60;53.80;;;;;;5067528;28;35540;-76
2021/12/05 17:29:03;;;;;;;1.40;1.30;;;5.60;53.70;;;;;;5067218;28;34318;-76
2021/12/05 17:31:35;;;;;;;1.45;1.10;;;5.60;53.70;;;;;;5084826;28;34232;-77
2021/12/05 17:34:06;;;;;;;1.52;1.42;;;5.60;54.40;;;;;;5065905;28;34085;-76
2021/12/05 17:36:37;;;;;;;1.40;1.30;;;5.60;53.70;;;;;;5080040;28;35991;-76
2021/12/05 17:39:14;;;;;;;1.20;1.10;;;5.60;53.70;;;;;;5049236;27;34275;-76
2021/12/05 17:41:44;;;;;;;1.50;1.30;;;5.60;53.70;;;;;;5089090;28;34146;-77
2021/12/05 17:44:11;;;;;;;1.48;1.10;;;5.60;53.80;;;;;;5104779;28;34403;-77
2021/12/05 17:46:39;;;;;;;2.67;1.38;;;5.60;53.80;;;;;;5087127;28;34332;-77
2021/12/05 17:49:08;;;;;;;1.42;1.25;;;5.60;53.90;;;;;;5085893;28;34289;-76
2021/12/05 17:51:37;;;;;;;1.60;1.20;;;5.50;53.80;;;;;;5103940;28;34272;-76